Valley Springs, South Dakota
Current Conditions -  °F | °C
As of 3:34 AM on Thursday 23 Oct 2014 (Local Time) from KLYV Reporting Station
Moderate Fog Moderate Fog  
Wind Chill: 52°   Ceiling: 200
Heat Index: 52°   Visibility: 0.25mi
Dew Point: 50°   Wind: 5mph
Humidity: 94%   Direction: 260°W
Pressure: 30.02"   Gusts: NA
Location:  43.58°N, 96.47°W
Report Text: KLYV 230834Z AUTO 26004KT 1/4SM FG OVC002 11/10 A3002 RMK AO2
Loading
Personal Weather Stations






























Interactive Weather Map New forecast layout! Learn more

10-Day Weather Forecast

Advertisements
Track Severe Weather on mobile